Time;durP1;ratioP1;P1;durP2;ratioP2;P2;SDS_P1;SDS_P2;PMS_P1;PMS_P2;Temp;Humidity;BMP_temperature;BMP_pressure;BME280_temperature;BME280_humidity;BME280_pressure;Samples;Min_cycle;Max_cycle;Signal;HPM_P1;HPM_P2
2023/12/28 00:00:19;;;;;;;2.83;0.60;;;;;;;7.29;52.99;95642.88;4395101;32;20279;-61
2023/12/28 00:02:44;;;;;;;0.57;0.57;;;;;;;7.30;52.26;95649.75;4355662;32;20279;-62
2023/12/28 00:05:11;;;;;;;0.33;0.33;;;;;;;7.29;52.34;95650.81;4392220;32;20300;-61
2023/12/28 00:07:37;;;;;;;1.27;1.17;;;;;;;7.26;53.00;95650.56;4375973;32;20298;-61
2023/12/28 00:10:04;;;;;;;0.50;0.50;;;;;;;7.27;54.05;95645.03;4381785;32;20276;-61
2023/12/28 00:12:32;;;;;;;0.83;0.60;;;;;;;7.19;53.15;95645.53;4390513;32;20311;-61
2023/12/28 00:14:57;;;;;;;0.50;0.50;;;;;;;7.30;52.82;95647.13;4389896;32;20275;-61
2023/12/28 00:17:23;;;;;;;0.20;0.20;;;;;;;7.24;53.16;95653.47;4401492;32;20409;-61
2023/12/28 00:19:48;;;;;;;3.40;0.53;;;;;;;7.15;52.83;95650.56;4389536;32;20229;-61
2023/12/28 00:22:13;;;;;;;0.70;0.70;;;;;;;7.30;52.81;95656.87;4376827;32;20188;-61
2023/12/28 00:24:40;;;;;;;0.77;0.77;;;;;;;7.21;52.83;95646.88;4368675;32;20188;-61
2023/12/28 00:27:05;;;;;;;1.17;1.07;;;;;;;7.18;52.76;95642.13;4398744;32;20188;-61
2023/12/28 00:29:32;;;;;;;0.70;0.70;;;;;;;6.97;52.95;95639.72;4393459;32;20291;-61
2023/12/28 00:31:58;;;;;;;0.60;0.60;;;;;;;7.15;53.02;95639.22;4370456;32;20181;-61
2023/12/28 00:34:24;;;;;;;0.97;0.87;;;;;;;7.03;53.02;95638.69;4398096;32;20275;-61
2023/12/28 00:36:55;;;;;;;1.30;1.20;;;;;;;7.09;54.11;95634.97;4369637;32;20192;-61
2023/12/28 00:39:22;;;;;;;0.73;0.50;;;;;;;7.10;53.47;95629.44;4393261;32;20296;-61
2023/12/28 00:41:49;;;;;;;4.07;0.47;;;;;;;7.07;53.04;95629.16;4389520;32;20283;-61
2023/12/28 00:44:16;;;;;;;0.40;0.40;;;;;;;7.09;53.14;95629.69;4378686;32;20320;-61
2023/12/28 00:46:41;;;;;;;0.53;0.53;;;;;;;6.99;53.70;95630.50;4400313;32;20336;-62
2023/12/28 00:49:08;;;;;;;0.27;0.27;;;;;;;6.89;53.62;95623.34;4395785;32;20356;-61
2023/12/28 00:51:35;;;;;;;1.57;0.63;;;;;;;6.90;54.23;95630.22;4406214;32;20293;-61
2023/12/28 00:54:01;;;;;;;0.83;0.83;;;;;;;6.86;54.93;95638.91;4394474;32;20185;-61
2023/12/28 00:56:27;;;;;;;0.50;0.50;;;;;;;6.86;54.25;95634.41;4389521;32;20366;-61
2023/12/28 00:58:52;;;;;;;0.30;0.30;;;;;;;6.75;54.99;95648.66;4393555;32;20254;-61
2023/12/28 01:01:19;;;;;;;0.67;0.67;;;;;;;6.83;54.85;95642.88;4377850;32;20322;-62
2023/12/28 01:03:45;;;;;;;0.50;0.50;;;;;;;6.74;55.29;95648.91;4342292;32;20222;-60
2023/12/28 01:06:11;;;;;;;0.63;0.63;;;;;;;6.76;55.46;95650.25;4400248;32;20284;-61
2023/12/28 01:08:36;;;;;;;1.17;1.07;;;;;;;6.77;55.12;95645.75;4389615;32;20200;-61
2023/12/28 01:11:03;;;;;;;0.80;0.80;;;;;;;6.80;54.79;95646.03;4397553;32;20296;-61
2023/12/28 01:13:30;;;;;;;0.60;0.60;;;;;;;6.72;54.55;95646.53;4393493;32;20195;-61
2023/12/28 01:15:56;;;;;;;0.97;0.97;;;;;;;6.59;54.82;95654.94;4405154;32;20264;-61
2023/12/28 01:18:23;;;;;;;0.80;0.80;;;;;;;6.48;56.07;95658.59;4403651;32;20385;-61
2023/12/28 01:20:48;;;;;;;0.40;0.40;;;;;;;6.58;56.54;95663.91;4390366;32;20225;-61
2023/12/28 01:23:14;;;;;;;0.83;0.83;;;;;;;6.55;56.01;95670.47;4388493;32;20327;-61
2023/12/28 01:25:39;;;;;;;0.60;0.60;;;;;;;6.56;55.36;95676.53;4401227;32;20168;-61
2023/12/28 01:28:05;;;;;;;0.60;0.60;;;;;;;6.48;55.37;95677.03;4390117;32;20345;-61
2023/12/28 01:30:31;;;;;;;0.53;0.53;;;;;;;6.54;56.87;95673.38;4367661;32;20192;-61
2023/12/28 01:32:59;;;;;;;0.40;0.40;;;;;;;6.50;55.91;95682.84;4392987;32;20189;-61
2023/12/28 01:35:25;;;;;;;2.77;0.77;;;;;;;6.42;56.10;95683.34;4388458;32;20298;-61
2023/12/28 01:37:52;;;;;;;1.13;1.13;;;;;;;6.45;56.79;95690.72;4371113;32;20307;-61
2023/12/28 01:40:20;;;;;;;0.53;0.53;;;;;;;6.37;57.32;95688.59;4382528;32;20311;-61
2023/12/28 01:42:46;;;;;;;0.80;0.67;;;;;;;6.22;57.23;95694.59;4394104;32;20317;-61
2023/12/28 01:45:13;;;;;;;0.70;0.70;;;;;;;6.29;57.13;95696.97;4398910;32;20272;-61
2023/12/28 01:47:39;;;;;;;0.93;0.93;;;;;;;6.27;57.83;95688.53;4384518;32;20180;-61
2023/12/28 01:50:27;;;;;;;0.50;0.50;;;;;;;6.34;57.33;95689.91;4369610;32;20325;-61
2023/12/28 01:52:57;;;;;;;0.60;0.60;;;;;;;6.26;57.15;95698.28;4382567;32;20441;-61
2023/12/28 01:55:22;;;;;;;1.87;0.60;;;;;;;6.31;57.39;95695.69;4387577;32;20264;-61
2023/12/28 01:57:49;;;;;;;3.80;0.67;;;;;;;6.20;58.09;95694.06;4404162;32;20328;-62
2023/12/28 02:00:16;;;;;;;1.40;1.03;;;;;;;6.15;59.08;95686.91;4384735;32;20180;-61
2023/12/28 02:02:42;;;;;;;0.70;0.70;;;;;;;6.19;59.76;95688.00;4373208;32;20370;-61
2023/12/28 02:05:11;;;;;;;0.57;0.57;;;;;;;6.29;57.85;95689.06;4385999;32;20355;-61
2023/12/28 02:07:36;;;;;;;1.37;1.27;;;;;;;6.19;58.17;95685.38;4359080;32;20188;-61
2023/12/28 02:10:05;;;;;;;0.40;0.40;;;;;;;6.26;56.83;95684.31;4384287;32;20287;-61
2023/12/28 02:12:32;;;;;;;1.50;1.03;;;;;;;6.39;57.59;95681.22;4387391;32;20215;-61
2023/12/28 02:15:00;;;;;;;0.73;0.73;;;;;;;6.31;57.65;95684.34;4383471;32;20306;-61
2023/12/28 02:17:37;;;;;;;0.70;0.70;;;;;;;6.30;57.42;95672.22;4353083;32;20302;-61
2023/12/28 02:20:10;;;;;;;0.50;0.50;;;;;;;6.35;56.75;95680.16;4395588;32;20339;-61
2023/12/28 02:22:36;;;;;;;1.60;0.83;;;;;;;6.28;58.43;95682.22;4401876;32;20290;-61
2023/12/28 02:25:14;;;;;;;0.23;0.23;;;;;;;6.33;59.20;95671.72;4375427;32;20343;-61
2023/12/28 02:27:42;;;;;;;0.67;0.63;;;;;;;6.32;59.01;95670.13;4394727;32;20276;-61
2023/12/28 02:30:11;;;;;;;0.57;0.57;;;;;;;6.48;59.66;95677.03;4375860;32;20343;-61
2023/12/28 02:33:01;;;;;;;0.57;0.57;;;;;;;6.53;60.64;95682.31;4382399;32;20304;-61
2023/12/28 02:35:37;;;;;;;0.40;0.40;;;;;;;6.57;60.52;95683.41;4393054;32;20281;-61
2023/12/28 02:38:07;;;;;;;0.67;0.67;;;;;;;6.49;59.92;95686.53;4395151;32;20279;-61
2023/12/28 02:40:38;;;;;;;0.30;0.30;;;;;;;6.50;60.05;95688.09;4376849;32;20284;-61
2023/12/28 02:43:07;;;;;;;0.50;0.50;;;;;;;6.59;59.93;95686.56;4398258;32;20292;-61
2023/12/28 02:45:34;;;;;;;0.17;0.17;;;;;;;6.68;58.70;95682.38;4380857;32;20382;-61
2023/12/28 02:48:01;;;;;;;0.57;0.57;;;;;;;6.76;56.56;95681.88;4373149;32;20362;-61
2023/12/28 02:50:26;;;;;;;0.20;0.20;;;;;;;6.74;56.20;95689.25;4363025;32;20272;-61
2023/12/28 02:52:53;;;;;;;0.10;0.10;;;;;;;6.70;56.23;95677.63;4391515;32;20408;-61
2023/12/28 02:55:18;;;;;;;0.10;0.10;;;;;;;6.76;55.06;95684.50;4357588;32;20256;-62
2023/12/28 02:57:45;;;;;;;1.33;0.50;;;;;;;6.79;54.97;95689.28;4390717;32;20275;-61
2023/12/28 03:00:11;;;;;;;0.73;0.70;;;;;;;6.69;56.55;95688.44;4398005;32;20185;-61
2023/12/28 03:02:37;;;;;;;2.80;0.53;;;;;;;6.63;56.35;95687.66;4390761;32;20276;-61
2023/12/28 03:05:06;;;;;;;0.30;0.30;;;;;;;6.55;57.40;95682.88;4401338;32;20284;-61
2023/12/28 03:07:33;;;;;;;0.67;0.53;;;;;;;6.65;57.23;95690.78;4383005;32;20374;-61
2023/12/28 03:09:58;;;;;;;0.57;0.57;;;;;;;6.71;55.89;95691.59;4396215;32;20305;-61
2023/12/28 03:12:24;;;;;;;0.50;0.50;;;;;;;6.69;57.02;95686.59;4381466;32;20307;-61
2023/12/28 03:14:52;;;;;;;0.10;0.10;;;;;;;6.76;56.06;95681.88;4380214;32;20255;-61
2023/12/28 03:17:17;;;;;;;0.53;0.53;;;;;;;6.79;54.50;95689.28;4391596;32;20218;-61
2023/12/28 03:19:43;;;;;;;0.40;0.40;;;;;;;6.91;54.79;95678.47;4388296;32;20290;-61
2023/12/28 03:22:09;;;;;;;0.67;0.67;;;;;;;6.88;55.89;95684.25;4377365;32;20211;-61
2023/12/28 03:24:37;;;;;;;0.67;0.50;;;;;;;6.86;55.58;95687.16;4403861;32;20188;-61
2023/12/28 03:27:04;;;;;;;0.60;0.60;;;;;;;6.78;55.29;95682.41;4387665;32;20345;-61
2023/12/28 03:29:29;;;;;;;0.50;0.50;;;;;;;6.81;55.07;95679.25;4391319;32;20371;-61
2023/12/28 03:31:55;;;;;;;0.30;0.20;;;;;;;6.85;53.46;95685.59;4380266;32;20283;-61
2023/12/28 03:34:22;;;;;;;0.40;0.40;;;;;;;6.92;54.41;95679.25;4356312;32;20200;-61
2023/12/28 03:36:51;;;;;;;1.30;0.40;;;;;;;6.84;54.75;95681.38;4402496;32;20176;-61
2023/12/28 03:39:17;;;;;;;0.30;0.30;;;;;;;6.90;54.71;95682.16;4404511;32;20262;-61
2023/12/28 03:41:43;;;;;;;0.40;0.40;;;;;;;6.84;53.74;95678.75;4406983;32;20325;-61
2023/12/28 03:44:10;;;;;;;0.20;0.20;;;;;;;6.93;54.47;95676.38;4372345;32;20290;-62
2023/12/28 03:46:35;;;;;;;0.20;0.20;;;;;;;6.97;54.41;95674.78;4399219;32;20267;-61
2023/12/28 03:49:01;;;;;;;0.30;0.30;;;;;;;6.98;54.44;95679.03;4365742;32;20303;-61
2023/12/28 03:51:29;;;;;;;0.20;0.20;;;;;;;7.01;52.97;95678.50;4372044;32;20210;-61
2023/12/28 03:53:56;;;;;;;0.40;0.40;;;;;;;6.97;51.58;95668.72;4385466;32;20367;-62
2023/12/28 03:56:27;;;;;;;0.57;0.57;;;;;;;6.99;50.63;95677.19;4354176;32;20275;-62
2023/12/28 03:58:52;;;;;;;0.30;0.30;;;;;;;7.02;50.20;95676.66;4381788;32;20418;-62
2023/12/28 04:01:19;;;;;;;0.30;0.30;;;;;;;7.07;50.97;95674.00;4396778;32;20274;-64
2023/12/28 04:03:44;;;;;;;0.13;0.13;;;;;;;7.01;50.90;95678.50;4390561;32;20283;-62
2023/12/28 04:06:11;;;;;;;0.20;0.20;;;;;;;7.03;50.51;95673.75;4390421;32;20268;-62
2023/12/28 04:08:36;;;;;;;0.30;0.30;;;;;;;7.08;49.61;95683.50;4390020;32;20176;-62
2023/12/28 04:11:02;;;;;;;0.03;0.03;;;;;;;7.12;49.21;95692.47;4390020;32;20295;-62
2023/12/28 04:13:28;;;;;;;0.23;0.23;;;;;;;7.06;50.05;95696.19;4403922;32;20306;-62
2023/12/28 04:15:55;;;;;;;0.20;0.20;;;;;;;7.07;50.30;95698.53;4393605;32;20263;-62
2023/12/28 04:18:21;;;;;;;0.10;0.10;;;;;;;7.07;50.30;95698.53;4371784;32;20177;-62
2023/12/28 04:20:46;;;;;;;0.33;0.33;;;;;;;7.10;50.19;95708.56;4392305;32;20267;-62
2023/12/28 04:23:12;;;;;;;0.23;0.23;;;;;;;7.04;50.35;95706.22;4396322;32;20326;-62
2023/12/28 04:25:37;;;;;;;0.30;0.30;;;;;;;6.96;51.99;95699.59;4404865;32;20254;-62
2023/12/28 04:28:04;;;;;;;0.20;0.20;;;;;;;6.88;51.41;95695.59;4398567;32;20203;-62
2023/12/28 04:30:29;;;;;;;0.23;0.23;;;;;;;6.84;52.38;95704.31;4391046;32;20193;-62
2023/12/28 04:32:54;;;;;;;0.23;0.23;;;;;;;6.82;51.70;95701.94;4392539;32;20268;-62
2023/12/28 04:35:20;;;;;;;0.27;0.27;;;;;;;6.76;51.77;95705.59;4361438;32;20223;-62
2023/12/28 04:37:46;;;;;;;0.20;0.20;;;;;;;6.70;52.02;95704.00;4372372;32;20176;-62
2023/12/28 04:40:14;;;;;;;0.30;0.30;;;;;;;6.77;51.87;95704.56;4397712;32;20321;-62
2023/12/28 04:42:41;;;;;;;0.40;0.40;;;;;;;6.73;52.80;95703.47;4376675;32;20284;-62
2023/12/28 04:45:13;;;;;;;0.40;0.40;;;;;;;6.57;54.54;95698.41;4376380;32;20292;-62
2023/12/28 04:47:39;;;;;;;0.50;0.50;;;;;;;6.55;54.62;95701.31;4393693;32;20293;-62
2023/12/28 04:50:07;;;;;;;0.20;0.20;;;;;;;6.62;53.86;95706.34;4376522;32;20292;-62
2023/12/28 04:52:33;;;;;;;0.47;0.40;;;;;;;6.66;54.13;95708.19;4371715;32;20315;-62
2023/12/28 04:55:00;;;;;;;1.20;0.97;;;;;;;6.67;54.39;95708.97;4394519;32;20280;-62
2023/12/28 04:57:27;;;;;;;0.33;0.33;;;;;;;6.74;54.71;95707.69;4397974;32;20282;-62
2023/12/28 04:59:56;;;;;;;0.53;0.53;;;;;;;6.82;54.43;95709.06;4403850;32;20298;-62
2023/12/28 05:02:22;;;;;;;0.20;0.20;;;;;;;6.92;53.31;95711.69;4392063;32;20321;-62
2023/12/28 05:04:47;;;;;;;0.50;0.50;;;;;;;7.03;54.37;95699.34;4394101;32;20308;-62
2023/12/28 05:07:13;;;;;;;0.00;0.00;;;;;;;6.99;53.72;95706.19;4401609;32;20317;-62
2023/12/28 05:09:38;;;;;;;0.40;0.40;;;;;;;7.07;51.49;95700.38;4405635;32;20289;-62
2023/12/28 05:12:06;;;;;;;0.20;0.20;;;;;;;7.05;51.78;95703.31;4390996;32;20230;-62
2023/12/28 05:14:34;;;;;;;0.10;0.10;;;;;;;7.06;51.06;95709.37;4391473;32;20181;-62
2023/12/28 05:17:00;;;;;;;0.27;0.27;;;;;;;7.03;51.37;95712.53;4396518;32;20279;-62
2023/12/28 05:19:27;;;;;;;0.10;0.10;;;;;;;7.03;50.52;95717.81;4402028;32;20268;-63
2023/12/28 05:21:52;;;;;;;0.20;0.20;;;;;;;7.06;50.07;95710.16;4378995;32;20348;-62
2023/12/28 05:24:18;;;;;;;0.10;0.10;;;;;;;7.11;50.28;95722.56;4399344;32;20287;-63
2023/12/28 05:26:44;;;;;;;0.57;0.57;;;;;;;7.05;50.33;95720.97;4393582;32;20195;-62
2023/12/28 05:29:11;;;;;;;0.10;0.10;;;;;;;7.04;51.41;95730.75;4383644;32;20176;-63
2023/12/28 05:31:38;;;;;;;0.30;0.30;;;;;;;6.97;51.51;95729.38;4374149;32;20370;-62
2023/12/28 05:34:05;;;;;;;0.30;0.30;;;;;;;7.03;51.57;95728.34;4397483;32;20305;-63
2023/12/28 05:36:32;;;;;;;0.20;0.20;;;;;;;6.94;51.43;95729.91;4403258;32;20333;-62
2023/12/28 05:38:57;;;;;;;0.23;0.23;;;;;;;6.93;52.01;95728.31;4391776;32;20318;-62
2023/12/28 05:41:23;;;;;;;0.10;0.10;;;;;;;6.95;51.50;95727.00;4407347;32;20279;-62
2023/12/28 05:43:50;;;;;;;0.33;0.33;;;;;;;6.96;52.26;95730.44;4396343;32;20195;-63
2023/12/28 05:46:15;;;;;;;2.20;0.50;;;;;;;6.99;51.85;95722.00;4400207;32;20244;-62
2023/12/28 05:48:41;;;;;;;0.30;0.30;;;;;;;6.98;52.07;95723.06;4394121;32;20288;-62
2023/12/28 05:51:06;;;;;;;0.30;0.30;;;;;;;6.95;51.74;95721.72;4371789;32;20269;-62
2023/12/28 05:53:32;;;;;;;0.10;0.10;;;;;;;6.99;53.07;95728.09;4406062;32;20271;-62
2023/12/28 05:56:03;;;;;;;0.10;0.10;;;;;;;7.00;52.95;95731.50;4399189;32;20233;-62
2023/12/28 05:58:30;;;;;;;0.20;0.20;;;;;;;7.01;53.00;95731.25;4372445;32;20287;-62
2023/12/28 06:00:55;;;;;;;0.47;0.47;;;;;;;7.01;52.76;95731.25;4381823;32;20301;-62
2023/12/28 06:03:21;;;;;;;0.17;0.17;;;;;;;7.03;52.57;95726.50;4399279;32;20275;-62
2023/12/28 06:05:47;;;;;;;0.27;0.27;;;;;;;7.04;50.91;95740.50;4383276;32;20188;-62
2023/12/28 06:08:13;;;;;;;0.30;0.30;;;;;;;7.00;51.38;95740.22;4404006;32;20189;-62
2023/12/28 06:10:40;;;;;;;0.50;0.30;;;;;;;7.09;50.97;95745.75;4394630;32;20188;-62
2023/12/28 06:13:07;;;;;;;0.70;0.30;;;;;;;6.74;51.38;95746.44;4395891;32;20328;-62
2023/12/28 06:15:32;;;;;;;0.40;0.23;;;;;;;6.74;51.04;95735.91;4387467;32;20292;-62
2023/12/28 06:17:58;;;;;;;0.83;0.50;;;;;;;6.80;51.81;95740.94;4396560;32;20247;-62
2023/12/28 06:20:24;;;;;;;0.97;0.97;;;;;;;6.82;52.20;95741.50;4384633;32;20212;-62
2023/12/28 06:22:51;;;;;;;0.33;0.33;;;;;;;6.72;51.87;95735.38;4365992;32;20185;-62
2023/12/28 06:25:17;;;;;;;0.30;0.30;;;;;;;6.79;52.16;95739.38;4386104;32;20283;-62
2023/12/28 06:27:46;;;;;;;0.10;0.10;;;;;;;6.82;52.13;95733.56;4365354;32;20264;-62
2023/12/28 06:30:14;;;;;;;0.17;0.17;;;;;;;6.92;51.34;95734.66;4397123;32;20267;-62
2023/12/28 06:32:41;;;;;;;0.40;0.27;;;;;;;6.90;50.94;95738.34;4357433;32;20301;-62
2023/12/28 06:35:07;;;;;;;0.60;0.60;;;;;;;6.78;51.55;95736.97;4375617;32;20328;-63
2023/12/28 06:37:32;;;;;;;0.33;0.33;;;;;;;6.62;52.09;95745.88;4397630;32;20285;-62
2023/12/28 06:39:58;;;;;;;0.63;0.57;;;;;;;6.79;51.72;95744.62;4388765;32;20248;-62
2023/12/28 06:42:24;;;;;;;0.43;0.43;;;;;;;6.74;51.40;95743.81;4343622;32;20208;-62
2023/12/28 06:44:50;;;;;;;0.53;0.50;;;;;;;6.71;51.41;95734.56;4387957;32;20370;-62
2023/12/28 06:47:18;;;;;;;0.30;0.30;;;;;;;6.64;51.94;95741.94;4382714;32;20180;-62
2023/12/28 06:49:44;;;;;;;0.50;0.50;;;;;;;6.60;51.78;95734.81;4401849;32;20320;-62
2023/12/28 06:52:10;;;;;;;0.17;0.17;;;;;;;6.59;51.86;95731.38;4385642;32;20275;-62
2023/12/28 06:54:37;;;;;;;0.30;0.30;;;;;;;6.62;51.57;95728.22;4396525;32;20332;-62
2023/12/28 06:57:05;;;;;;;0.37;0.37;;;;;;;6.71;51.51;95726.66;4392085;32;20333;-62
2023/12/28 06:59:30;;;;;;;0.27;0.23;;;;;;;6.85;50.61;95725.16;4399224;32;20279;-62
2023/12/28 07:01:55;;;;;;;0.20;0.20;;;;;;;6.89;50.97;95728.03;4379820;32;20290;-62
2023/12/28 07:04:21;;;;;;;0.20;0.20;;;;;;;6.90;50.54;95729.62;4381334;32;20168;-62
2023/12/28 07:06:48;;;;;;;0.30;0.30;;;;;;;6.90;50.95;95729.62;4405142;32;20261;-62
2023/12/28 07:09:15;;;;;;;1.23;0.30;;;;;;;6.98;50.30;95736.25;4405469;32;20222;-62
2023/12/28 07:11:41;;;;;;;0.40;0.40;;;;;;;6.96;51.05;95735.72;4391054;32;20419;-62
2023/12/28 07:14:06;;;;;;;0.20;0.20;;;;;;;7.04;50.89;95722.03;4381758;32;20272;-62
2023/12/28 07:16:33;;;;;;;0.27;0.27;;;;;;;7.11;50.92;95725.19;4371670;32;20294;-62
2023/12/28 07:18:58;;;;;;;0.37;0.37;;;;;;;7.13;51.35;95733.63;4389394;32;20207;-62
2023/12/28 07:21:24;;;;;;;0.30;0.30;;;;;;;7.10;51.93;95718.34;4380452;32;20268;-62
2023/12/28 07:23:50;;;;;;;0.20;0.20;;;;;;;7.10;51.49;95724.41;4361454;32;20184;-62
2023/12/28 07:26:15;;;;;;;0.20;0.20;;;;;;;7.12;51.21;95717.03;4384096;32;20253;-62
2023/12/28 07:28:44;;;;;;;0.63;0.63;;;;;;;7.16;49.71;95717.28;4383264;32;20383;-62
2023/12/28 07:31:10;;;;;;;0.10;0.10;;;;;;;7.27;49.51;95715.47;4382262;32;20360;-62
2023/12/28 07:33:38;;;;;;;0.20;0.20;;;;;;;7.26;50.20;95719.16;4394323;32;20381;-62
2023/12/28 07:36:06;;;;;;;0.40;0.40;;;;;;;7.19;51.46;95722.84;4397046;32;20246;-62
2023/12/28 07:38:34;;;;;;;0.17;0.17;;;;;;;7.22;50.41;95727.59;4385233;32;20319;-62
2023/12/28 07:41:00;;;;;;;0.20;0.20;;;;;;;7.23;49.57;95725.75;4383916;32;20279;-62
2023/12/28 07:43:25;;;;;;;0.30;0.30;;;;;;;7.25;49.56;95721.00;4382017;32;20376;-63
2023/12/28 07:45:51;;;;;;;0.30;0.20;;;;;;;7.26;50.15;95725.25;4380527;32;20302;-62
2023/12/28 07:48:17;;;;;;;0.60;0.60;;;;;;;7.29;51.05;95732.59;4396980;32;20200;-62
2023/12/28 07:50:43;;;;;;;0.47;0.47;;;;;;;7.32;50.09;95721.53;4376350;32;20233;-62
2023/12/28 07:53:09;;;;;;;0.33;0.33;;;;;;;7.43;48.75;95728.41;4401176;32;20393;-62
2023/12/28 07:55:35;;;;;;;0.50;0.50;;;;;;;7.49;49.46;95737.91;4405213;32;20210;-62
2023/12/28 07:58:00;;;;;;;0.10;0.10;;;;;;;7.36;50.53;95738.44;4398459;32;20338;-62
2023/12/28 08:00:26;;;;;;;0.43;0.30;;;;;;;7.48;50.47;95738.19;4393031;32;20334;-62
2023/12/28 08:02:53;;;;;;;0.17;0.17;;;;;;;7.41;48.93;95738.44;4401107;32;20200;-63
2023/12/28 08:05:20;;;;;;;0.10;0.10;;;;;;;7.47;48.42;95734.75;4406125;32;20310;-63
2023/12/28 08:07:46;;;;;;;0.40;0.40;;;;;;;7.57;50.47;95736.59;4378121;32;20277;-62
2023/12/28 08:10:13;;;;;;;0.47;0.47;;;;;;;7.51;50.58;95740.28;4390860;32;20309;-62
2023/12/28 08:12:39;;;;;;;17.90;0.70;;;;;;;7.59;49.90;95742.41;4386505;32;20382;-62
2023/12/28 08:15:05;;;;;;;0.30;0.30;;;;;;;7.64;50.80;95749.56;4380546;32;20280;-62
2023/12/28 08:17:31;;;;;;;0.03;0.03;;;;;;;7.71;49.85;95753.50;4383893;32;20222;-63
2023/12/28 08:19:57;;;;;;;0.43;0.43;;;;;;;7.63;50.42;95761.16;4396044;32;20285;-62
2023/12/28 08:22:23;;;;;;;2.23;0.53;;;;;;;7.67;51.34;95754.31;4403784;32;20258;-62
2023/12/28 08:24:48;;;;;;;0.50;0.50;;;;;;;7.66;50.81;95763.28;4405694;32;20336;-62
2023/12/28 08:27:15;;;;;;;0.10;0.10;;;;;;;7.66;51.24;95753.50;4400594;32;20184;-62
2023/12/28 08:29:42;;;;;;;0.27;0.27;;;;;;;7.75;49.58;95761.69;4375299;32;20215;-62
2023/12/28 08:32:07;;;;;;;0.73;0.50;;;;;;;7.79;50.90;95766.19;4367699;32;20285;-62
2023/12/28 08:34:34;;;;;;;0.47;0.47;;;;;;;7.80;51.13;95762.47;4388374;32;20309;-62
2023/12/28 08:37:00;;;;;;;0.30;0.30;;;;;;;7.80;53.29;95769.63;4389232;32;20235;-62
2023/12/28 08:39:25;;;;;;;4.90;0.50;;;;;;;7.85;53.68;95772.25;4404204;32;20295;-62
2023/12/28 08:41:52;;;;;;;0.40;0.40;;;;;;;7.82;53.68;95778.06;4376464;32;20310;-62
2023/12/28 08:44:19;;;;;;;0.77;0.77;;;;;;;7.84;53.80;95773.31;4392080;32;20188;-62
2023/12/28 08:46:45;;;;;;;0.53;0.53;;;;;;;7.91;51.84;95771.19;4369968;32;20280;-62
2023/12/28 08:49:15;;;;;;;0.10;0.10;;;;;;;8.04;51.83;95767.22;4388056;32;20281;-62
2023/12/28 08:51:42;;;;;;;0.30;0.30;;;;;;;8.09;50.28;95764.59;4389364;32;20352;-62
2023/12/28 08:54:09;;;;;;;0.10;0.10;;;;;;;8.23;48.24;95753.19;4367467;32;20269;-62
2023/12/28 08:56:34;;;;;;;0.33;0.33;;;;;;;8.36;48.04;95751.88;4388767;32;20300;-62
2023/12/28 08:58:59;;;;;;;0.10;0.10;;;;;;;8.43;46.87;95762.16;4344215;32;20303;-62
2023/12/28 09:01:25;;;;;;;0.10;0.10;;;;;;;8.50;47.13;95760.84;4353661;32;20176;-62
2023/12/28 09:03:52;;;;;;;0.50;0.27;;;;;;;8.61;46.40;95758.94;4371889;32;20305;-62
2023/12/28 09:06:18;;;;;;;0.20;0.20;;;;;;;8.70;47.00;95762.63;4390531;32;20169;-62
2023/12/28 09:08:44;;;;;;;0.20;0.20;;;;;;;8.73;47.07;95762.06;4376037;32;20268;-62
2023/12/28 09:11:13;;;;;;;0.10;0.10;;;;;;;8.79;45.74;95770.78;4377154;32;20268;-62
2023/12/28 09:13:40;;;;;;;0.10;0.10;;;;;;;8.89;46.05;95774.19;4346788;32;20352;-62
2023/12/28 09:16:07;;;;;;;0.17;0.17;;;;;;;8.94;46.76;95774.16;4373610;32;20183;-62
2023/12/28 09:18:33;;;;;;;0.47;0.30;;;;;;;8.94;47.09;95774.16;4403358;32;20280;-63
2023/12/28 09:21:00;;;;;;;0.37;0.37;;;;;;;8.93;47.21;95769.16;4362971;32;20279;-62
2023/12/28 09:23:27;;;;;;;0.17;0.17;;;;;;;8.94;46.14;95762.78;4374979;32;20241;-62
2023/12/28 09:25:52;;;;;;;0.30;0.30;;;;;;;8.96;47.58;95764.09;4390459;32;20299;-63
2023/12/28 09:28:18;;;;;;;0.10;0.10;;;;;;;9.03;46.22;95758.50;4395469;32;20316;-62
2023/12/28 09:30:44;;;;;;;0.30;0.30;;;;;;;9.05;45.83;95758.25;4400543;32;20189;-62
2023/12/28 09:33:10;;;;;;;0.40;0.37;;;;;;;9.07;46.41;95750.81;4381420;32;20321;-62
2023/12/28 09:35:37;;;;;;;0.07;0.07;;;;;;;9.10;46.46;95752.94;4365273;32;20216;-62
2023/12/28 09:38:04;;;;;;;1.40;0.40;;;;;;;9.14;46.04;95754.75;4404512;32;20184;-62
2023/12/28 09:40:30;;;;;;;0.60;0.40;;;;;;;9.23;45.54;95765.56;4389334;32;20188;-62
2023/12/28 09:43:17;;;;;;;0.27;0.27;;;;;;;9.28;46.03;95749.66;4392466;32;20214;-62
2023/12/28 09:45:47;;;;;;;0.47;0.47;;;;;;;9.29;46.22;95749.38;4405143;32;20199;-62
2023/12/28 09:48:15;;;;;;;0.10;0.10;;;;;;;9.36;45.22;95751.69;4389058;32;20248;-62
2023/12/28 09:50:41;;;;;;;0.60;0.60;;;;;;;9.40;44.73;95744.78;4401442;32;20199;-62
2023/12/28 09:53:07;;;;;;;0.40;0.40;;;;;;;9.45;44.98;95744.75;4379752;32;20226;-62
2023/12/28 09:55:33;;;;;;;0.63;0.63;;;;;;;9.54;44.86;95748.44;4390874;32;20188;-62
2023/12/28 09:58:00;;;;;;;0.57;0.57;;;;;;;9.49;45.84;95743.16;4364334;32;20241;-62
2023/12/28 10:00:34;;;;;;;0.70;0.70;;;;;;;9.58;44.61;95740.69;4388312;32;20188;-62
2023/12/28 10:02:59;;;;;;;0.50;0.50;;;;;;;9.60;44.90;95739.34;4369622;32;20185;-62
2023/12/28 10:05:26;;;;;;;0.10;0.10;;;;;;;9.57;44.98;95734.59;4374461;32;20221;-63
2023/12/28 10:07:51;;;;;;;0.47;0.47;;;;;;;9.61;44.69;95730.34;4349277;32;20251;-62
2023/12/28 10:10:19;;;;;;;0.20;0.20;;;;;;;9.65;44.77;95741.97;4392953;32;20183;-63
2023/12/28 10:12:46;;;;;;;0.30;0.30;;;;;;;9.65;44.51;95743.81;4404352;32;20217;-61
2023/12/28 10:15:13;;;;;;;0.50;0.50;;;;;;;9.67;44.75;95743.56;4394674;32;20198;-63
2023/12/28 10:17:39;;;;;;;0.10;0.10;;;;;;;9.64;44.86;95743.03;4396959;32;20270;-62
2023/12/28 10:20:09;;;;;;;0.17;0.17;;;;;;;9.67;45.15;95751.50;4394606;32;20222;-62
2023/12/28 10:22:34;;;;;;;0.10;0.10;;;;;;;9.70;44.98;95740.34;4388225;32;20257;-62
2023/12/28 10:25:04;;;;;;;0.50;0.50;;;;;;;9.76;44.62;95744.56;4397053;32;20168;-64
2023/12/28 10:27:29;;;;;;;0.30;0.30;;;;;;;9.79;44.32;95741.31;4359408;32;20208;-62
2023/12/28 10:29:56;;;;;;;0.27;0.27;;;;;;;9.75;44.67;95746.41;4383397;32;20214;-64
2023/12/28 10:32:25;;;;;;;0.53;0.53;;;;;;;9.83;45.19;95732.56;4389187;32;20207;-64
2023/12/28 10:34:53;;;;;;;0.13;0.13;;;;;;;9.83;44.98;95737.06;4387788;32;20185;-62
2023/12/28 10:37:22;;;;;;;0.33;0.33;;;;;;;9.85;44.79;95740.22;4385564;32;20177;-62
2023/12/28 10:39:53;;;;;;;0.30;0.30;;;;;;;9.86;44.66;95729.34;4391680;32;20251;-62
2023/12/28 10:42:48;;;;;;;0.30;0.30;;;;;;;9.95;44.92;95722.41;4397407;32;20192;-63
2023/12/28 10:45:16;;;;;;;0.20;0.20;;;;;;;10.02;43.87;95724.69;4390066;32;20189;-63
2023/12/28 10:47:47;;;;;;;0.60;0.60;;;;;;;10.04;44.12;95727.06;4390563;32;20181;-63
2023/12/28 10:50:15;;;;;;;0.20;0.20;;;;;;;10.05;43.95;95712.75;4376787;32;20266;-63
2023/12/28 10:52:48;;;;;;;0.40;0.40;;;;;;;10.04;44.04;95717.25;4400712;32;20180;-62
2023/12/28 10:55:21;;;;;;;0.43;0.43;;;;;;;10.06;44.00;95715.13;4400846;32;20245;-63
2023/12/28 10:58:03;;;;;;;0.30;0.30;;;;;;;10.14;43.68;95722.47;4396484;32;20205;-63
2023/12/28 11:00:33;;;;;;;0.00;0.00;;;;;;;10.13;44.10;95723.56;4356670;32;20249;-63
2023/12/28 11:03:03;;;;;;;0.50;0.47;;;;;;;10.17;43.76;95713.97;4368713;32;20183;-63
2023/12/28 11:05:29;;;;;;;0.40;0.40;;;;;;;10.15;43.89;95712.66;4396327;32;20194;-63
2023/12/28 11:07:58;;;;;;;0.40;0.40;;;;;;;10.17;43.92;95710.53;4389887;32;20189;-63
2023/12/28 11:10:24;;;;;;;1.20;0.67;;;;;;;10.21;44.17;95712.34;4376520;32;20184;-63
2023/12/28 11:12:55;;;;;;;0.43;0.43;;;;;;;10.26;44.90;95707.00;4402056;32;20203;-63
2023/12/28 11:15:23;;;;;;;0.37;0.37;;;;;;;10.22;44.91;95708.63;4372663;32;20204;-63
2023/12/28 11:17:49;;;;;;;0.30;0.30;;;;;;;10.29;45.10;95698.50;4356958;32;20193;-63
2023/12/28 11:20:15;;;;;;;0.40;0.40;;;;;;;10.36;44.39;95697.38;4397056;32;20198;-63
2023/12/28 11:22:42;;;;;;;0.70;0.70;;;;;;;10.36;44.17;95694.72;4352728;32;20217;-63
2023/12/28 11:25:16;;;;;;;0.30;0.30;;;;;;;10.40;45.23;95696.50;4398469;32;20199;-63
2023/12/28 11:27:44;;;;;;;1.17;0.73;;;;;;;10.40;44.60;95693.84;4352129;32;20199;-63
2023/12/28 11:30:11;;;;;;;0.10;0.10;;;;;;;10.43;44.47;95690.62;4379912;32;20269;-63
2023/12/28 11:32:37;;;;;;;0.23;0.23;;;;;;;10.37;44.65;95683.81;4388740;32;20211;-63
2023/12/28 11:35:06;;;;;;;1.13;0.30;;;;;;;10.35;46.42;95691.28;4368321;32;20219;-63
2023/12/28 11:37:36;;;;;;;0.10;0.10;;;;;;;10.39;44.56;95684.34;4367333;32;20277;-63
2023/12/28 11:40:16;;;;;;;0.40;0.37;;;;;;;10.44;43.86;95683.47;4406288;32;20188;-63